Terminal Aerodrome Forecast
Issued by NWS

Home | Current Version | Previous Version | Graphics & Text | Print | Product List | Glossary On
Versions: 1 2 3 4 5 6 7 8 9 10 11 12 13 14
082
FTUS42 KMHX 231721
TAFPGV
TAF
KPGV 231721Z 2318/2418 04008KT P6SM VCSH OVC015
     FM240100 05011KT 5SM SHRA OVC010
     FM240700 06007KT 3SM SHRA OVC010
     FM241400 06008KT 4SM SHRA OVC040
      AMD LTD TO CLD VIS AND WIND=

USA.gov is the U.S. government's official web portal to all federal, state and local government web resources and services.